createdAt,value
2023-02-15T17:20:26.734Z,93.10
2023-02-15T17:22:55.145Z,92.60
2023-02-15T17:25:28.077Z,92.60
2023-02-15T17:27:57.797Z,92.60
2023-02-15T17:30:31.439Z,92.40
2023-02-15T17:33:01.259Z,92.40
2023-02-15T17:35:32.359Z,92.50
2023-02-15T17:38:06.371Z,92.90
2023-02-15T17:40:36.626Z,92.90
2023-02-15T17:43:05.151Z,92.70
2023-02-15T17:45:35.683Z,92.90
2023-02-15T17:48:05.493Z,92.70
2023-02-15T17:50:35.590Z,92.40
2023-02-15T17:53:03.893Z,92.90
2023-02-15T17:55:40.000Z,92.70
2023-02-15T17:58:09.549Z,92.70
2023-02-15T18:00:58.186Z,92.80
2023-02-15T18:03:48.081Z,92.60
2023-02-15T18:06:34.739Z,92.80
2023-02-15T18:09:20.366Z,93.00
2023-02-15T18:11:50.635Z,92.80
2023-02-15T18:14:18.601Z,92.90
2023-02-15T18:16:46.880Z,93.40
2023-02-15T18:19:18.248Z,93.20
2023-02-15T18:21:48.208Z,93.20
2023-02-15T18:24:18.939Z,93.30
2023-02-15T18:26:47.151Z,93.70
2023-02-15T18:29:15.302Z,93.30
2023-02-15T18:31:45.485Z,93.20
2023-02-15T18:34:24.578Z,93.30
2023-02-15T18:36:54.082Z,93.20
2023-02-15T18:39:33.393Z,93.20
2023-02-15T18:42:01.675Z,93.20
2023-02-15T18:44:29.651Z,93.10
2023-02-15T18:46:57.617Z,93.20
2023-02-15T18:49:25.604Z,93.30
2023-02-15T18:51:55.031Z,93.20
2023-02-15T18:54:25.650Z,93.30
2023-02-15T18:56:56.638Z,93.30
2023-02-15T18:59:26.746Z,93.40
2023-02-15T19:01:55.592Z,93.40
2023-02-15T19:04:25.686Z,92.90
2023-02-15T19:06:55.910Z,92.80
2023-02-15T19:09:25.549Z,92.80
2023-02-15T19:11:56.164Z,92.80
2023-02-15T19:14:28.943Z,92.80
2023-02-15T19:16:57.509Z,92.80
2023-02-15T19:19:26.151Z,92.70
2023-02-15T19:21:56.041Z,92.80
2023-02-15T19:24:31.641Z,92.80
2023-02-15T19:26:59.669Z,92.80
2023-02-15T19:29:30.614Z,93.10
2023-02-15T19:31:58.938Z,92.90
2023-02-15T19:34:26.850Z,92.80
2023-02-15T19:36:57.544Z,92.80
2023-02-15T19:39:28.885Z,92.90
2023-02-15T19:41:57.301Z,93.20
2023-02-15T19:44:25.492Z,93.10
2023-02-15T19:46:53.384Z,93.30
2023-02-15T19:49:21.282Z,93.20
2023-02-15T19:51:49.460Z,93.40
2023-02-15T19:54:30.558Z,93.40
2023-02-15T19:56:58.900Z,93.50
2023-02-15T19:59:28.482Z,93.50
2023-02-15T20:01:56.641Z,93.50
2023-02-15T20:04:24.990Z,93.50
2023-02-15T20:06:55.540Z,93.30
2023-02-15T20:09:27.305Z,93.20
2023-02-15T20:11:55.356Z,93.00
2023-02-15T20:14:24.246Z,92.90
2023-02-15T20:16:52.403Z,92.90
2023-02-15T20:19:20.353Z,92.80
2023-02-15T20:21:51.900Z,93.10
2023-02-15T20:24:22.792Z,92.70
2023-02-15T20:26:52.185Z,92.70
2023-02-15T20:29:20.554Z,92.80
2023-02-15T20:31:48.532Z,92.90
2023-02-15T20:34:16.451Z,92.80
2023-02-15T20:36:44.419Z,92.90
2023-02-15T20:39:16.394Z,93.00
2023-02-15T20:41:47.677Z,93.40
2023-02-15T20:44:25.363Z,93.50
2023-02-15T20:46:55.581Z,93.40
2023-02-15T20:49:24.973Z,93.50
2023-02-15T20:51:53.606Z,93.60
2023-02-15T20:54:23.926Z,93.60
2023-02-15T20:56:52.630Z,93.50
2023-02-15T20:59:27.564Z,93.70
2023-02-15T21:01:58.457Z,93.50
2023-02-15T21:04:31.008Z,93.50
2023-02-15T21:06:59.340Z,93.50
2023-02-15T21:09:27.686Z,93.40
2023-02-15T21:11:57.072Z,93.30
2023-02-15T21:14:30.136Z,93.30
2023-02-15T21:16:58.040Z,93.30
2023-02-15T21:19:26.369Z,93.20
2023-02-15T21:21:55.060Z,93.30
2023-02-15T21:24:25.589Z,93.40
2023-02-15T21:26:54.672Z,93.30
2023-02-15T21:29:24.785Z,93.30
2023-02-15T21:31:54.343Z,93.30
2023-02-15T21:34:22.544Z,93.10
2023-02-15T21:36:51.618Z,93.30
2023-02-15T21:39:21.766Z,93.30
2023-02-15T21:42:09.172Z,93.30
2023-02-15T21:44:54.748Z,93.30
2023-02-15T21:47:42.825Z,93.30
2023-02-15T21:50:31.778Z,93.40
2023-02-15T21:53:00.429Z,93.30
2023-02-15T21:55:28.332Z,93.20
2023-02-15T21:57:56.204Z,93.20
2023-02-15T22:00:25.868Z,93.10
2023-02-15T22:02:56.835Z,93.00
2023-02-15T22:05:27.810Z,93.00
2023-02-15T22:07:57.141Z,93.20
2023-02-15T22:10:27.257Z,93.40
2023-02-15T22:12:56.056Z,93.40
2023-02-15T22:15:25.534Z,93.50
2023-02-15T22:17:55.021Z,93.50
2023-02-15T22:20:24.827Z,93.50
2023-02-15T22:22:53.152Z,93.40
2023-02-15T22:25:23.145Z,93.40
2023-02-15T22:27:52.775Z,93.30
2023-02-15T22:30:26.282Z,93.30
2023-02-15T22:32:56.844Z,93.30
2023-02-15T22:35:27.765Z,93.20
2023-02-15T22:37:56.042Z,93.40
2023-02-15T22:40:28.207Z,93.20
2023-02-15T22:42:57.662Z,93.00
2023-02-15T22:45:27.995Z,92.80
2023-02-15T22:48:00.079Z,92.80
2023-02-15T22:50:30.350Z,92.70
2023-02-15T22:53:00.246Z,92.60
2023-02-15T22:55:30.857Z,92.50
2023-02-15T22:57:59.607Z,92.50
2023-02-15T23:00:30.576Z,92.50
2023-02-15T23:02:59.970Z,92.90
2023-02-15T23:05:30.141Z,92.50
2023-02-15T23:07:58.261Z,92.60
2023-02-15T23:10:27.518Z,92.60
2023-02-15T23:13:14.615Z,92.80
2023-02-15T23:15:43.972Z,92.80
2023-02-15T23:18:19.575Z,92.90
2023-02-15T23:20:49.758Z,93.00
2023-02-15T23:23:18.454Z,92.90
